Time;durP1;ratioP1;P1;durP2;ratioP2;P2;SDS_P1;SDS_P2;PMS_P1;PMS_P2;Temp;Humidity;BMP_temperature;BMP_pressure;BME280_temperature;BME280_humidity;BME280_pressure;Samples;Min_cycle;Max_cycle;Signal;HPM_P1;HPM_P2
2021/11/13 00:00:09;;;;;;;;;;;;;;;19.68;35.43;95589.66;1024083;29;864;-54
2021/11/13 00:00:39;;;;;;;;;;;;;;;19.68;35.25;95588.91;1024321;29;887;-54
2021/11/13 00:01:10;;;;;;;;;;;;;;;19.68;35.41;95594.16;1022925;29;812;-58
2021/11/13 00:01:41;;;;;;;;;;;;;;;19.67;35.19;95588.09;1023635;29;1307;-58
2021/11/13 00:02:11;;;;;;;;;;;;;;;19.66;35.38;95583.13;1023829;28;911;-55
2021/11/13 00:02:42;;;;;;;;;;;;;;;19.67;35.40;95587.31;1024217;29;754;-57
2021/11/13 00:03:13;;;;;;;;;;;;;;;19.66;35.48;95591.78;1024546;29;1036;-55
2021/11/13 00:03:43;;;;;;;;;;;;;;;19.68;35.36;95586.25;1024738;29;1234;-57
2021/11/13 00:04:14;;;;;;;;;;;;;;;19.68;35.41;95578.38;1024275;29;841;-59
2021/11/13 00:04:44;;;;;;;;;;;;;;;19.66;35.26;95581.25;1024175;29;805;-58
2021/11/13 00:05:15;;;;;;;;;;;;;;;19.67;35.36;95587.31;1024962;29;775;-54
2021/11/13 00:05:46;;;;;;;;;;;;;;;19.67;35.34;95587.31;1024470;29;832;-55
2021/11/13 00:06:16;;;;;;;;;;;;;;;19.65;35.47;95584.16;1024735;29;762;-57
2021/11/13 00:06:47;;;;;;;;;;;;;;;19.67;35.38;95577.59;1024976;29;813;-53
2021/11/13 00:07:18;;;;;;;;;;;;;;;19.67;35.41;95585.47;1025099;29;883;-56
2021/11/13 00:07:48;;;;;;;;;;;;;;;19.67;35.25;95584.69;1024708;29;971;-56
2021/11/13 00:08:19;;;;;;;;;;;;;;;19.67;35.37;95585.47;1024840;29;999;-57
2021/11/13 00:08:49;;;;;;;;;;;;;;;19.69;35.31;95585.19;1025005;29;876;-56
2021/11/13 00:09:20;;;;;;;;;;;;;;;19.70;35.18;95577.03;1024655;29;852;-59
2021/11/13 00:09:50;;;;;;;;;;;;;;;19.72;35.22;95584.66;1024731;29;1355;-53
2021/11/13 00:10:26;;;;;;;;;;;;;;;19.74;35.16;95582.56;1024417;29;1260;-56
2021/11/13 00:10:59;;;;;;;;;;;;;;;19.73;35.17;95583.59;1024442;29;869;-53
2021/11/13 00:11:30;;;;;;;;;;;;;;;19.76;35.22;95585.69;1020706;29;1236;-53
2021/11/13 00:12:00;;;;;;;;;;;;;;;19.77;35.18;95582.00;1017399;29;1347;-57
2021/11/13 00:12:31;;;;;;;;;;;;;;;19.76;35.07;95583.06;1020444;29;940;-58
2021/11/13 00:13:01;;;;;;;;;;;;;;;19.77;34.99;95587.25;1020752;29;873;-54
2021/11/13 00:13:32;;;;;;;;;;;;;;;19.77;35.25;95577.53;1024757;29;928;-55
2021/11/13 00:14:03;;;;;;;;;;;;;;;19.78;35.22;95580.94;1024795;29;1376;-57
2021/11/13 00:14:34;;;;;;;;;;;;;;;19.76;35.28;95585.69;1023697;29;817;-54
2021/11/13 00:15:05;;;;;;;;;;;;;;;19.76;35.19;95586.50;1024301;29;1906;-56
2021/11/13 00:15:36;;;;;;;;;;;;;;;19.76;35.07;95580.44;1024870;29;971;-57
2021/11/13 00:16:07;;;;;;;;;;;;;;;19.79;35.10;95588.56;1023174;29;971;-57
2021/11/13 00:16:37;;;;;;;;;;;;;;;19.77;35.15;95584.63;1024702;29;904;-56
2021/11/13 00:17:08;;;;;;;;;;;;;;;19.77;35.03;95588.03;1025028;29;932;-55
2021/11/13 00:17:38;;;;;;;;;;;;;;;19.80;34.92;95587.50;1025265;29;1087;-56
2021/11/13 00:18:10;;;;;;;;;;;;;;;19.78;35.11;95583.56;1024500;29;877;-58
2021/11/13 00:18:40;;;;;;;;;;;;;;;19.81;34.97;95583.00;1028823;28;1197;-58
2021/11/13 00:19:11;;;;;;;;;;;;;;;19.77;34.95;95582.78;1028780;28;720;-57
2021/11/13 00:19:42;;;;;;;;;;;;;;;19.76;35.03;95583.84;1024437;29;1332;-54
2021/11/13 00:20:13;;;;;;;;;;;;;;;19.76;35.04;95583.84;1024575;29;923;-56
2021/11/13 00:20:43;;;;;;;;;;;;;;;19.77;35.11;95582.00;1024816;29;860;-54
2021/11/13 00:21:14;;;;;;;;;;;;;;;19.76;35.00;95583.06;1024564;29;888;-58
2021/11/13 00:21:44;;;;;;;;;;;;;;;19.75;35.03;95587.53;1025217;29;834;-53
2021/11/13 00:22:15;;;;;;;;;;;;;;;19.75;35.01;95586.75;1024200;29;1023;-58
2021/11/13 00:22:45;;;;;;;;;;;;;;;19.77;35.08;95587.25;1024547;29;817;-55
2021/11/13 00:23:17;;;;;;;;;;;;;;;19.79;35.08;95587.75;1024821;29;782;-53
2021/11/13 00:23:47;;;;;;;;;;;;;;;19.77;35.21;95585.41;1024694;29;1288;-57
2021/11/13 00:24:18;;;;;;;;;;;;;;;19.77;35.25;95589.88;1024185;29;794;-54
2021/11/13 00:24:49;;;;;;;;;;;;;;;19.76;35.01;95586.50;1024025;29;518;-51
2021/11/13 00:25:19;;;;;;;;;;;;;;;19.76;35.10;95585.69;1028697;28;985;-57
2021/11/13 00:25:50;;;;;;;;;;;;;;;19.76;35.12;95583.06;1020656;29;873;-56
2021/11/13 00:26:22;;;;;;;;;;;;;;;19.75;35.06;95584.09;1020317;29;892;-54
2021/11/13 00:26:52;;;;;;;;;;;;;;;19.74;35.19;95582.56;1020905;29;805;-55
2021/11/13 00:27:23;;;;;;;;;;;;;;;19.75;35.14;95584.09;1021173;29;793;-55
2021/11/13 00:27:54;;;;;;;;;;;;;;;19.76;35.10;95580.44;1024279;29;762;-57
2021/11/13 00:28:25;;;;;;;;;;;;;;;19.75;34.91;95589.38;1024296;29;1131;-54
2021/11/13 00:28:55;;;;;;;;;;;;;;;19.77;35.05;95582.00;1020784;29;1363;-53
2021/11/13 00:29:26;;;;;;;;;;;;;;;19.76;35.10;95586.50;1020848;29;932;-54
2021/11/13 00:29:56;;;;;;;;;;;;;;;19.76;35.01;95588.31;1024500;29;1106;-53
2021/11/13 00:30:27;;;;;;;;;;;;;;;19.75;35.09;95584.09;1024059;29;924;-54
2021/11/13 00:30:57;;;;;;;;;;;;;;;19.76;34.85;95585.69;1024234;29;1067;-55
2021/11/13 00:31:28;;;;;;;;;;;;;;;19.75;35.05;95590.16;1024540;29;798;-56
2021/11/13 00:31:58;;;;;;;;;;;;;;;19.75;34.96;95590.16;1024738;29;1043;-56
2021/11/13 00:32:29;;;;;;;;;;;;;;;19.76;35.11;95588.31;1024730;29;876;-57
2021/11/13 00:33:00;;;;;;;;;;;;;;;19.76;34.98;95581.22;1024987;29;805;-57
2021/11/13 00:33:30;;;;;;;;;;;;;;;19.76;35.06;95585.69;1025095;29;715;-56
2021/11/13 00:34:01;;;;;;;;;;;;;;;19.74;35.07;95583.31;1024732;29;1234;-58
2021/11/13 00:34:32;;;;;;;;;;;;;;;19.76;35.08;95588.31;1019883;29;790;-56
2021/11/13 00:35:02;;;;;;;;;;;;;;;19.78;34.99;95578.31;1020563;29;1981;-58
2021/11/13 00:35:33;;;;;;;;;;;;;;;19.77;35.07;95582.78;1020619;29;903;-58
2021/11/13 00:36:04;;;;;;;;;;;;;;;19.80;34.99;95577.00;1021917;29;813;-59
2021/11/13 00:36:34;;;;;;;;;;;;;;;19.82;35.02;95595.13;1025901;29;880;-58
2021/11/13 00:37:05;;;;;;;;;;;;;;;19.83;35.10;95586.16;1025616;29;1226;-59
2021/11/13 00:37:36;;;;;;;;;;;;;;;19.83;34.83;95589.59;1025911;29;1087;-58
2021/11/13 00:38:06;;;;;;;;;;;;;;;19.82;34.81;95590.66;1025602;29;1027;-58
2021/11/13 00:38:37;;;;;;;;;;;;;;;19.83;34.90;95588.78;1025709;29;806;-58
2021/11/13 00:39:07;;;;;;;;;;;;;;;19.86;34.94;95590.88;1025046;29;869;-59
2021/11/13 00:39:38;;;;;;;;;;;;;;;19.86;34.76;95594.31;1021361;29;734;-58
2021/11/13 00:40:09;;;;;;;;;;;;;;;19.86;34.88;95590.88;1017682;29;822;-58
2021/11/13 00:40:40;;;;;;;;;;;;;;;19.83;35.09;95586.97;1017786;29;1219;-59
2021/11/13 00:41:10;;;;;;;;;;;;;;;19.83;34.97;95586.16;1017013;29;759;-55
2021/11/13 00:41:41;;;;;;;;;;;;;;;19.83;35.09;95588.78;1020980;29;813;-58
2021/11/13 00:42:13;;;;;;;;;;;;;;;19.81;34.90;95586.44;1020942;29;798;-57
2021/11/13 00:42:44;;;;;;;;;;;;;;;19.78;34.95;95579.09;1024912;29;864;-56
2021/11/13 00:43:14;;;;;;;;;;;;;;;19.78;34.95;95584.38;1024521;29;1206;-58
2021/11/13 00:43:45;;;;;;;;;;;;;;;19.77;34.99;95587.25;1024477;29;1328;-54
2021/11/13 00:44:16;;;;;;;;;;;;;;;19.78;35.03;95583.56;1024727;29;805;-55
2021/11/13 00:44:48;;;;;;;;;;;;;;;19.77;34.97;95582.00;1024490;29;933;-57
2021/11/13 00:45:18;;;;;;;;;;;;;;;19.76;35.11;95580.44;1024567;29;809;-56
2021/11/13 00:45:49;;;;;;;;;;;;;;;19.77;35.13;95579.34;1024388;29;1038;-58
2021/11/13 00:46:19;;;;;;;;;;;;;;;19.77;34.96;95577.53;1023573;29;1442;-58
2021/11/13 00:46:50;;;;;;;;;;;;;;;19.78;34.96;95580.94;1025013;29;779;-57
2021/11/13 00:47:21;;;;;;;;;;;;;;;19.79;35.01;95579.88;1024724;29;774;-56
2021/11/13 00:47:51;;;;;;;;;;;;;;;19.78;34.97;95579.09;1025192;29;825;-55
2021/11/13 00:48:22;;;;;;;;;;;;;;;19.81;34.94;95575.13;1024731;29;857;-54
2021/11/13 00:48:53;;;;;;;;;;;;;;;19.79;35.11;95571.97;1024656;29;798;-55
2021/11/13 00:49:23;;;;;;;;;;;;;;;19.78;35.03;95570.44;1024275;29;773;-58
2021/11/13 00:49:54;;;;;;;;;;;;;;;19.78;35.05;95575.69;1024539;29;865;-56
2021/11/13 00:50:24;;;;;;;;;;;;;;;19.79;34.95;95574.63;1024916;29;901;-57
2021/11/13 00:50:55;;;;;;;;;;;;;;;19.78;34.87;95571.22;1024442;29;908;-53
2021/11/13 00:51:25;;;;;;;;;;;;;;;19.81;34.96;95570.66;1024268;29;924;-57
2021/11/13 00:51:56;;;;;;;;;;;;;;;19.82;34.94;95574.09;1024714;29;537;-57
2021/11/13 00:52:26;;;;;;;;;;;;;;;19.81;34.86;95577.75;1024303;29;900;-58
2021/11/13 00:52:57;;;;;;;;;;;;;;;19.82;34.74;95574.09;1024995;29;794;-57
2021/11/13 00:53:28;;;;;;;;;;;;;;;19.83;34.89;95570.38;1024420;29;833;-55
2021/11/13 00:53:59;;;;;;;;;;;;;;;19.82;34.94;95568.81;1019942;29;1211;-57
2021/11/13 00:54:33;;;;;;;;;;;;;;;19.81;34.95;95565.41;1020086;29;877;-57
2021/11/13 00:55:04;;;;;;;;;;;;;;;19.80;34.94;95568.31;1017295;29;1974;-56
2021/11/13 00:55:34;;;;;;;;;;;;;;;19.80;34.91;95569.09;1017385;29;1062;-57
2021/11/13 00:56:05;;;;;;;;;;;;;;;19.79;34.85;95567.50;1020447;29;802;-57
2021/11/13 00:56:35;;;;;;;;;;;;;;;19.80;34.96;95565.69;1020749;29;889;-54
2021/11/13 00:57:07;;;;;;;;;;;;;;;19.78;34.82;95568.59;1024683;29;877;-60
2021/11/13 00:57:38;;;;;;;;;;;;;;;19.78;34.93;95562.53;1024861;29;885;-54
2021/11/13 00:58:09;;;;;;;;;;;;;;;19.80;34.99;95566.47;1025047;29;806;-57
2021/11/13 00:58:39;;;;;;;;;;;;;;;19.78;35.03;95568.59;1024664;29;1598;-54
2021/11/13 00:59:10;;;;;;;;;;;;;;;19.80;34.87;95566.47;1016602;29;1355;-58
2021/11/13 00:59:41;;;;;;;;;;;;;;;19.79;34.82;95561.47;1016716;29;1058;-57
2021/11/13 01:00:12;;;;;;;;;;;;;;;19.81;34.91;95567.25;1009005;29;902;-54
2021/11/13 01:00:42;;;;;;;;;;;;;;;19.79;34.84;95564.09;1009215;29;1280;-58
2021/11/13 01:01:13;;;;;;;;;;;;;;;19.78;34.97;95565.16;1015469;29;794;-55
2021/11/13 01:01:44;;;;;;;;;;;;;;;19.78;34.84;95568.59;1016725;29;816;-54
2021/11/13 01:02:14;;;;;;;;;;;;;;;19.78;35.04;95567.78;1024560;29;845;-56
2021/11/13 01:02:45;;;;;;;;;;;;;;;19.81;34.84;95569.88;1024869;29;1036;-52
2021/11/13 01:03:15;;;;;;;;;;;;;;;19.79;34.90;95566.72;1025143;29;836;-56
2021/11/13 01:03:46;;;;;;;;;;;;;;;19.78;34.97;95568.59;1024783;29;1262;-57
2021/11/13 01:04:17;;;;;;;;;;;;;;;19.79;34.96;95569.34;1024441;29;951;-54
2021/11/13 01:04:47;;;;;;;;;;;;;;;19.80;34.88;95571.72;1024723;29;1138;-56
2021/11/13 01:05:18;;;;;;;;;;;;;;;19.81;34.93;95572.50;1024811;29;878;-61
2021/11/13 01:05:48;;;;;;;;;;;;;;;19.79;34.95;95571.97;1024618;29;1149;-59
2021/11/13 01:06:19;;;;;;;;;;;;;;;19.80;34.91;95570.94;1024839;29;908;-57
2021/11/13 01:06:49;;;;;;;;;;;;;;;19.79;34.87;95572.78;1024911;29;857;-56
2021/11/13 01:07:20;;;;;;;;;;;;;;;19.81;34.98;95575.13;1024653;29;1233;-52
2021/11/13 01:07:51;;;;;;;;;;;;;;;19.79;34.81;95571.97;1024628;29;872;-57
2021/11/13 01:08:21;;;;;;;;;;;;;;;19.83;34.83;95570.38;1024323;29;868;-56
2021/11/13 01:08:52;;;;;;;;;;;;;;;19.83;34.75;95570.38;1020868;29;1249;-54
2021/11/13 01:09:23;;;;;;;;;;;;;;;19.84;34.94;95572.75;1024519;29;853;-55
2021/11/13 01:09:54;;;;;;;;;;;;;;;19.84;34.93;95574.59;1024756;29;965;-54
2021/11/13 01:10:24;;;;;;;;;;;;;;;19.83;34.94;95567.75;1024291;29;840;-57
2021/11/13 01:10:55;;;;;;;;;;;;;;;19.81;34.76;95565.41;1024398;29;1139;-56
2021/11/13 01:11:27;;;;;;;;;;;;;;;19.83;34.76;95567.75;1024452;29;1131;-55
2021/11/13 01:11:58;;;;;;;;;;;;;;;19.83;34.80;95571.16;1024598;29;940;-52
2021/11/13 01:12:29;;;;;;;;;;;;;;;19.81;34.88;95565.41;1024211;29;793;-57
2021/11/13 01:12:59;;;;;;;;;;;;;;;19.81;34.90;95561.97;1024981;29;877;-58
2021/11/13 01:13:30;;;;;;;;;;;;;;;19.80;34.83;95566.47;1024467;28;1245;-58
2021/11/13 01:14:01;;;;;;;;;;;;;;;19.81;34.83;95567.25;1024043;29;1305;-55
2021/11/13 01:14:39;;;;;;;;;;;;;;;19.81;34.93;95567.25;1023497;29;846;-56
2021/11/13 01:15:12;;;;;;;;;;;;;;;19.81;34.86;95561.97;1024513;29;1923;-53
2021/11/13 01:15:42;;;;;;;;;;;;;;;19.80;34.86;95560.41;1024941;29;880;-56
2021/11/13 01:16:13;;;;;;;;;;;;;;;19.80;34.83;95557.78;1023310;29;790;-57
2021/11/13 01:16:44;;;;;;;;;;;;;;;19.81;34.83;95564.59;1024954;29;964;-57
2021/11/13 01:17:16;;;;;;;;;;;;;;;19.83;34.76;95562.50;1024908;29;995;-56
2021/11/13 01:17:47;;;;;;;;;;;;;;;19.81;34.81;95559.34;1024564;29;956;-56
2021/11/13 01:18:17;;;;;;;;;;;;;;;19.79;34.81;95557.00;1024563;29;888;-58
2021/11/13 01:18:48;;;;;;;;;;;;;;;19.82;34.89;95560.94;1020399;29;829;-56
2021/11/13 01:19:18;;;;;;;;;;;;;;;19.82;34.86;95556.47;1020607;29;1034;-54
2021/11/13 01:19:49;;;;;;;;;;;;;;;19.81;34.67;95552.25;1024616;29;889;-58
2021/11/13 01:20:20;;;;;;;;;;;;;;;19.83;34.81;95555.38;1024511;29;789;-56
2021/11/13 01:20:50;;;;;;;;;;;;;;;19.82;34.69;95553.03;1024738;29;830;-58
2021/11/13 01:21:21;;;;;;;;;;;;;;;19.83;34.85;95554.59;1024692;29;805;-55
2021/11/13 01:21:51;;;;;;;;;;;;;;;19.83;34.79;95557.22;1024541;29;879;-55
2021/11/13 01:22:25;;;;;;;;;;;;;;;19.82;34.83;95553.03;1020278;29;1387;-55
2021/11/13 01:22:56;;;;;;;;;;;;;;;19.82;34.81;95551.22;1020531;29;1043;-58
2021/11/13 01:23:26;;;;;;;;;;;;;;;19.84;34.68;95550.94;1020737;29;998;-56
2021/11/13 01:23:57;;;;;;;;;;;;;;;19.84;34.68;95551.72;1024530;29;1360;-56
2021/11/13 01:24:27;;;;;;;;;;;;;;;19.84;34.82;95556.19;1024053;29;904;-57
2021/11/13 01:24:58;;;;;;;;;;;;;;;19.84;34.82;95556.19;1024314;29;832;-58
2021/11/13 01:25:28;;;;;;;;;;;;;;;19.83;34.67;95555.38;1024325;29;915;-57
2021/11/13 01:25:59;;;;;;;;;;;;;;;19.82;34.86;95559.09;1024383;29;1010;-59
2021/11/13 01:26:30;;;;;;;;;;;;;;;19.85;34.86;95555.09;1024769;29;1254;-57
2021/11/13 01:27:00;;;;;;;;;;;;;;;19.84;34.73;95561.44;1024688;29;807;-59
2021/11/13 01:27:31;;;;;;;;;;;;;;;19.85;34.81;95557.75;1024901;29;987;-58
2021/11/13 01:28:01;;;;;;;;;;;;;;;19.84;34.67;95556.97;1024010;29;876;-57
2021/11/13 01:28:32;;;;;;;;;;;;;;;19.84;34.87;95553.56;1024595;29;860;-57
2021/11/13 01:29:03;;;;;;;;;;;;;;;19.84;34.64;95556.19;1024523;28;742;-55
2021/11/13 01:29:33;;;;;;;;;;;;;;;19.83;34.85;95555.38;1024701;29;790;-56
2021/11/13 01:30:04;;;;;;;;;;;;;;;19.84;34.63;95551.72;1024740;29;849;-55
2021/11/13 01:30:34;;;;;;;;;;;;;;;19.86;34.73;95554.06;1024744;29;1009;-58
2021/11/13 01:31:08;;;;;;;;;;;;;;;19.84;34.89;95550.94;1023297;29;849;-58
2021/11/13 01:31:38;;;;;;;;;;;;;;;19.84;34.64;95545.66;1024465;29;947;-57
2021/11/13 01:32:09;;;;;;;;;;;;;;;19.84;34.73;95553.56;1024192;29;1378;-59
2021/11/13 01:32:39;;;;;;;;;;;;;;;19.83;34.75;95550.13;1024489;29;766;-56
2021/11/13 01:33:10;;;;;;;;;;;;;;;19.84;34.87;95556.19;1019791;29;805;-58
2021/11/13 01:33:41;;;;;;;;;;;;;;;19.84;34.78;95545.66;1020732;29;1234;-57
2021/11/13 01:34:12;;;;;;;;;;;;;;;19.86;34.74;95548.81;1015277;29;932;-57
2021/11/13 01:34:42;;;;;;;;;;;;;;;19.85;34.62;95553.28;1019131;29;1979;-58
2021/11/13 01:35:13;;;;;;;;;;;;;;;19.84;34.81;95546.47;1024259;29;816;-56
2021/11/13 01:35:44;;;;;;;;;;;;;;;19.88;34.63;95541.44;1024306;29;963;-56
2021/11/13 01:36:14;;;;;;;;;;;;;;;19.85;34.74;95537.50;1024137;29;852;-58
2021/11/13 01:36:45;;;;;;;;;;;;;;;19.88;34.62;95546.69;1024191;29;984;-58
2021/11/13 01:37:16;;;;;;;;;;;;;;;19.90;34.71;95542.72;1024247;29;920;-57
2021/11/13 01:37:46;;;;;;;;;;;;;;;19.89;34.68;95548.25;1024285;29;971;-55
2021/11/13 01:38:17;;;;;;;;;;;;;;;19.90;34.63;95547.19;1024226;29;809;-55
2021/11/13 01:38:47;;;;;;;;;;;;;;;19.90;34.50;95549.81;1024007;29;971;-56
2021/11/13 01:39:18;;;;;;;;;;;;;;;19.85;34.79;95542.75;1024479;29;979;-55
2021/11/13 01:39:49;;;;;;;;;;;;;;;19.87;34.73;95550.34;1020427;29;1320;-58
2021/11/13 01:40:20;;;;;;;;;;;;;;;19.87;34.65;95545.09;1016425;29;1131;-57
2021/11/13 01:40:51;;;;;;;;;;;;;;;19.89;34.57;95537.72;1020390;29;829;-55
2021/11/13 01:41:22;;;;;;;;;;;;;;;19.87;34.69;95545.09;1016550;29;821;-57
2021/11/13 01:41:54;;;;;;;;;;;;;;;19.87;34.75;95542.47;1016945;29;858;-54
2021/11/13 01:42:27;;;;;;;;;;;;;;;19.86;34.76;95541.72;1016392;29;850;-57
2021/11/13 01:42:58;;;;;;;;;;;;;;;19.86;34.63;95540.91;1017325;29;853;-56
2021/11/13 01:43:30;;;;;;;;;;;;;;;19.87;34.77;95542.47;1021026;29;1257;-57
2021/11/13 01:44:05;;;;;;;;;;;;;;;19.85;34.75;95532.22;1021395;29;1500;-54
2021/11/13 01:44:36;;;;;;;;;;;;;;;19.86;34.77;95538.28;1019263;29;933;-58
2021/11/13 01:45:07;;;;;;;;;;;;;;;19.86;34.64;95538.28;1020747;29;821;-56
2021/11/13 01:45:37;;;;;;;;;;;;;;;19.88;34.49;95536.16;1020608;29;936;-57
2021/11/13 01:46:08;;;;;;;;;;;;;;;19.87;34.65;95534.59;1022813;29;1066;-58
2021/11/13 01:46:39;;;;;;;;;;;;;;;19.89;34.57;95537.72;1024376;29;999;-55
2021/11/13 01:47:09;;;;;;;;;;;;;;;19.87;34.66;95524.06;1024376;29;798;-57
2021/11/13 01:47:40;;;;;;;;;;;;;;;19.88;34.62;95536.97;1020639;29;1039;-55
2021/11/13 01:48:10;;;;;;;;;;;;;;;19.87;34.71;95534.59;1020592;29;932;-56
2021/11/13 01:48:41;;;;;;;;;;;;;;;19.90;34.56;95529.56;1024132;29;841;-55
2021/11/13 01:49:11;;;;;;;;;;;;;;;19.89;34.62;95533.25;1024445;29;880;-58
2021/11/13 01:49:42;;;;;;;;;;;;;;;19.89;34.62;95533.25;1024700;29;824;-57
2021/11/13 01:50:16;;;;;;;;;;;;;;;19.88;34.48;95533.53;1024458;29;1500;-55
2021/11/13 01:50:47;;;;;;;;;;;;;;;19.87;34.56;95535.38;1024401;29;828;-58
2021/11/13 01:51:21;;;;;;;;;;;;;;;19.87;34.77;95524.84;1023894;29;781;-58
2021/11/13 01:51:52;;;;;;;;;;;;;;;19.86;34.63;95528.56;1021650;29;774;-57
2021/11/13 01:52:23;;;;;;;;;;;;;;;19.88;34.65;95526.44;1024216;29;734;-56
2021/11/13 01:52:54;;;;;;;;;;;;;;;19.89;34.57;95528.00;1024034;29;821;-56
2021/11/13 01:53:24;;;;;;;;;;;;;;;19.89;34.69;95520.09;1024424;29;739;-54
2021/11/13 01:53:56;;;;;;;;;;;;;;;19.89;34.68;95525.34;1024447;29;1229;-54
2021/11/13 01:54:29;;;;;;;;;;;;;;;19.88;34.62;95525.63;1023768;29;930;-56
2021/11/13 01:54:59;;;;;;;;;;;;;;;19.89;34.61;95527.19;1024131;29;1887;-57
2021/11/13 01:55:34;;;;;;;;;;;;;;;19.91;34.65;95522.44;1024267;29;944;-56
2021/11/13 01:56:05;;;;;;;;;;;;;;;19.89;34.60;95528.00;1024277;29;1114;-56
2021/11/13 01:56:35;;;;;;;;;;;;;;;19.90;34.49;95528.78;1024853;29;990;-55
2021/11/13 01:57:09;;;;;;;;;;;;;;;19.91;34.69;95519.81;1024245;29;817;-58
2021/11/13 01:57:47;;;;;;;;;;;;;;;19.91;34.61;95519.81;1025195;29;822;-57
2021/11/13 01:58:17;;;;;;;;;;;;;;;19.90;34.67;95521.69;1024714;29;837;-54
2021/11/13 01:58:49;;;;;;;;;;;;;;;19.89;34.55;95514.03;1024424;29;783;-58
2021/11/13 01:59:22;;;;;;;;;;;;;;;19.88;34.76;95518.53;1024151;29;1473;-55
2021/11/13 01:59:52;;;;;;;;;;;;;;;19.88;34.59;95525.63;1024385;29;841;-57
2021/11/13 02:00:25;;;;;;;;;;;;;;;19.88;34.63;95523.00;1024551;29;876;-55
2021/11/13 02:00:57;;;;;;;;;;;;;;;19.89;34.55;95519.31;1022873;29;999;-56
2021/11/13 02:01:27;;;;;;;;;;;;;;;19.87;34.70;95524.84;1023659;29;936;-58
2021/11/13 02:01:58;;;;;;;;;;;;;;;19.89;34.53;95525.34;1024627;29;774;-57
2021/11/13 02:02:28;;;;;;;;;;;;;;;19.89;34.69;95521.94;1023942;29;872;-54
2021/11/13 02:02:59;;;;;;;;;;;;;;;19.92;34.56;95529.28;1024552;29;987;-53
2021/11/13 02:03:30;;;;;;;;;;;;;;;19.91;34.62;95525.06;1024468;29;873;-56
2021/11/13 02:04:00;;;;;;;;;;;;;;;19.91;34.72;95530.34;1024004;29;1297;-56
2021/11/13 02:04:31;;;;;;;;;;;;;;;19.89;34.41;95528.00;1023718;29;813;-55
2021/11/13 02:05:04;;;;;;;;;;;;;;;19.91;34.50;95527.72;1020260;29;1003;-54
2021/11/13 02:05:35;;;;;;;;;;;;;;;19.89;34.54;95524.56;1020390;29;860;-56
2021/11/13 02:06:06;;;;;;;;;;;;;;;19.88;34.55;95530.91;1020865;29;853;-57
2021/11/13 02:06:36;;;;;;;;;;;;;;;19.88;34.58;95536.97;1024612;29;768;-56
2021/11/13 02:07:07;;;;;;;;;;;;;;;19.88;34.59;95526.44;1024844;29;837;-56
2021/11/13 02:07:38;;;;;;;;;;;;;;;19.89;34.77;95532.47;1024647;29;1023;-57
2021/11/13 02:08:14;;;;;;;;;;;;;;;19.90;34.63;95537.47;1025126;29;900;-55
2021/11/13 02:08:46;;;;;;;;;;;;;;;19.90;34.49;95528.78;1024107;29;1137;-57
2021/11/13 02:09:19;;;;;;;;;;;;;;;19.90;34.67;95529.56;1020272;29;1394;-54
2021/11/13 02:10:10;;;;;;;;;;;;;;;19.90;34.58;95528.78;1020191;29;812;-54
2021/11/13 02:11:00;;;;;;;;;;;;;;;19.90;34.54;95526.16;1021308;29;1362;-57
2021/11/13 02:11:32;;;;;;;;;;;;;;;19.90;34.56;95528.78;1020242;29;1129;-55
2021/11/13 02:12:03;;;;;;;;;;;;;;;19.94;34.62;95530.59;1016267;29;1288;-57
2021/11/13 02:12:34;;;;;;;;;;;;;;;19.93;34.50;95525.59;1019170;29;857;-55
2021/11/13 02:13:06;;;;;;;;;;;;;;;19.94;34.49;95521.91;1016837;29;1347;-57
2021/11/13 02:13:57;;;;;;;;;;;;;;;19.93;34.63;95528.22;1020218;29;1302;-56
2021/11/13 02:14:28;;;;;;;;;;;;;;;19.94;34.75;95522.72;1019842;29;1457;-55
2021/11/13 02:15:08;;;;;;;;;;;;;;;19.90;34.58;95523.53;1024146;29;1961;-56
2021/11/13 02:15:58;;;;;;;;;;;;;;;19.88;34.54;95523.81;1022097;29;1190;-58
2021/11/13 02:16:31;;;;;;;;;;;;;;;19.89;34.56;95521.94;1020606;29;1594;-58
2021/11/13 02:17:03;;;;;;;;;;;;;;;19.89;34.55;95528.00;1024933;29;1547;-59
2021/11/13 02:17:54;;;;;;;;;;;;;;;19.89;34.53;95521.94;1023886;29;1250;-59
2021/11/13 02:18:30;;;;;;;;;;;;;;;19.90;34.57;95528.78;1025412;29;1535;-59
2021/11/13 02:19:01;;;;;;;;;;;;;;;19.93;34.54;95522.97;1025424;29;833;-58
2021/11/13 02:19:37;;;;;;;;;;;;;;;19.92;34.58;95522.19;1021413;29;1234;-58
2021/11/13 02:20:29;;;;;;;;;;;;;;;19.93;34.56;95522.97;1024486;29;1181;-54
2021/11/13 02:21:01;;;;;;;;;;;;;;;19.92;34.61;95526.66;1021671;29;805;-59
2021/11/13 02:21:36;;;;;;;;;;;;;;;19.93;34.59;95528.22;1020971;29;997;-58
2021/11/13 02:22:27;;;;;;;;;;;;;;;19.91;34.61;95531.13;1020240;29;1254;-57
2021/11/13 02:23:18;;;;;;;;;;;;;;;19.92;34.48;95526.66;1022282;29;1222;-56
2021/11/13 02:23:48;;;;;;;;;;;;;;;19.91;34.54;95530.34;1025160;29;1348;-56
2021/11/13 02:24:19;;;;;;;;;;;;;;;19.91;34.48;95520.59;1024241;29;1358;-57
2021/11/13 02:24:50;;;;;;;;;;;;;;;19.91;34.46;95530.34;1024502;29;911;-56
2021/11/13 02:25:21;;;;;;;;;;;;;;;19.90;34.74;95526.94;1023967;28;1306;-58
2021/11/13 02:26:12;;;;;;;;;;;;;;;19.92;34.58;95524.81;1023899;29;1056;-57
2021/11/13 02:27:02;;;;;;;;;;;;;;;19.93;34.66;95523.75;1024139;29;1190;-60
2021/11/13 02:27:53;;;;;;;;;;;;;;;19.94;34.36;95529.81;1024055;28;1067;-60
2021/11/13 02:28:44;;;;;;;;;;;;;;;19.94;34.54;95524.53;1023969;29;1115;-56
2021/11/13 02:29:24;;;;;;;;;;;;;;;19.93;34.62;95525.59;1023818;29;1353;-55
2021/11/13 02:29:54;;;;;;;;;;;;;;;19.93;34.44;95521.13;1024342;29;934;-58
2021/11/13 02:30:25;;;;;;;;;;;;;;;19.93;34.58;95522.97;1023619;29;790;-58
2021/11/13 02:30:57;;;;;;;;;;;;;;;19.91;34.58;95520.59;1023492;29;920;-55
2021/11/13 02:31:32;;;;;;;;;;;;;;;19.91;34.63;95522.44;1023883;29;900;-55
2021/11/13 02:32:22;;;;;;;;;;;;;;;19.90;34.60;95526.16;1021777;29;1060;-56
2021/11/13 02:33:13;;;;;;;;;;;;;;;19.92;34.63;95526.66;1024029;29;1115;-56
2021/11/13 02:33:48;;;;;;;;;;;;;;;19.93;34.54;95528.22;1024157;29;1391;-54
2021/11/13 02:34:19;;;;;;;;;;;;;;;19.95;34.57;95526.09;1023498;29;896;-57
2021/11/13 02:34:49;;;;;;;;;;;;;;;19.93;34.42;95522.97;1019784;29;1902;-58
2021/11/13 02:35:30;;;;;;;;;;;;;;;19.92;34.55;95524.81;1017287;29;1552;-56
2021/11/13 02:36:01;;;;;;;;;;;;;;;19.92;34.45;95526.66;1012082;29;1273;-58
2021/11/13 02:36:31;;;;;;;;;;;;;;;19.90;34.61;95529.56;1013963;29;977;-56
2021/11/13 02:37:02;;;;;;;;;;;;;;;19.93;34.49;95533.47;1016597;29;1039;-55
2021/11/13 02:37:32;;;;;;;;;;;;;;;19.92;34.62;95529.28;1021066;29;865;-57
2021/11/13 02:38:30;;;;;;;;;;;;;;;19.95;34.46;95528.72;1024118;28;875;-61
2021/11/13 02:39:00;;;;;;;;;;;;;;;19.94;34.45;95527.97;1023883;29;1196;-52
2021/11/13 02:39:32;;;;;;;;;;;;;;;19.94;34.49;95532.44;1024275;29;1512;-55
2021/11/13 02:40:03;;;;;;;;;;;;;;;19.93;34.50;95523.75;1020314;29;959;-57
2021/11/13 02:40:33;;;;;;;;;;;;;;;19.92;34.62;95532.72;1016361;29;1444;-57
2021/11/13 02:41:08;;;;;;;;;;;;;;;19.94;34.58;95530.59;1016101;29;813;-54
2021/11/13 02:41:39;;;;;;;;;;;;;;;19.92;34.61;95529.28;1020947;29;802;-53
2021/11/13 02:42:09;;;;;;;;;;;;;;;19.90;34.61;95529.56;1020685;29;1039;-56
2021/11/13 02:42:40;;;;;;;;;;;;;;;19.91;34.49;95530.34;1024240;29;897;-55
2021/11/13 02:43:11;;;;;;;;;;;;;;;19.91;34.60;95531.13;1019555;29;907;-56
2021/11/13 02:43:42;;;;;;;;;;;;;;;19.92;34.59;95531.94;1016570;29;1219;-54
2021/11/13 02:44:13;;;;;;;;;;;;;;;19.91;34.67;95528.50;1016352;29;1343;-57
2021/11/13 02:44:43;;;;;;;;;;;;;;;19.93;34.69;95526.38;1012372;29;756;-58
2021/11/13 02:45:14;;;;;;;;;;;;;;;19.92;34.55;95531.94;1016186;29;956;-57
2021/11/13 02:45:45;;;;;;;;;;;;;;;19.91;34.53;95527.72;1016146;29;869;-56
2021/11/13 02:46:16;;;;;;;;;;;;;;;19.90;34.57;95531.41;1015144;29;1216;-56
2021/11/13 02:46:47;;;;;;;;;;;;;;;19.91;34.52;95525.06;1020523;29;861;-56
2021/11/13 02:47:20;;;;;;;;;;;;;;;19.90;34.58;95528.78;1024005;29;837;-58
2021/11/13 02:47:54;;;;;;;;;;;;;;;19.90;34.55;95528.78;1016117;29;1419;-55
2021/11/13 02:48:24;;;;;;;;;;;;;;;19.91;34.70;95531.13;1020128;29;856;-54
2021/11/13 02:48:55;;;;;;;;;;;;;;;19.91;34.45;95522.44;1020270;29;972;-56
2021/11/13 02:49:26;;;;;;;;;;;;;;;19.92;34.66;95531.94;1020829;29;810;-58
2021/11/13 02:49:56;;;;;;;;;;;;;;;19.91;34.55;95533.75;1024535;29;802;-58
2021/11/13 02:50:27;;;;;;;;;;;;;;;19.92;34.67;95532.72;1024112;29;1054;-55